Time;durP1;ratioP1;P1;durP2;ratioP2;P2;SDS_P1;SDS_P2;PMS_P1;PMS_P2;Temp;Humidity;BMP_temperature;BMP_pressure;BME280_temperature;BME280_humidity;BME280_pressure;Samples;Min_cycle;Max_cycle;Signal;HPM_P1;HPM_P2
2021/09/29 00:01:28;;;;;;;15.95;4.75;;;13.30;92.00;;;;;;4977160;28;20137;-86
2021/09/29 00:03:53;;;;;;;13.07;4.60;;;13.30;92.00;;;;;;4976909;28;20051;-86
2021/09/29 00:06:19;;;;;;;10.60;4.53;;;13.30;92.00;;;;;;4977231;28;20039;-86
2021/09/29 00:08:44;;;;;;;14.88;4.93;;;13.30;92.00;;;;;;4977631;28;20054;-86
2021/09/29 00:11:10;;;;;;;12.82;4.47;;;13.30;92.00;;;;;;4976963;28;20049;-86
2021/09/29 00:13:36;;;;;;;14.07;5.18;;;13.20;92.00;;;;;;4975473;28;20081;-86
2021/09/29 00:23:37;;;;;;;10.27;4.75;;;13.10;92.40;;;;;;4910376;29;20111;-86
2021/09/29 00:30:26;;;;;;;;;;;13.10;92.10;;;;;;4899038;29;20067;-84
2021/09/29 00:32:52;;;;;;;9.80;4.47;;;13.00;91.90;;;;;;4894498;29;20005;-86
2021/09/29 00:35:17;;;;;;;11.82;4.40;;;13.00;92.40;;;;;;4915246;29;20139;-85
2021/09/29 00:37:51;;;;;;;15.98;5.25;;;13.00;92.40;;;;;;4899573;29;20103;-86
2021/09/29 00:40:20;;;;;;;11.75;4.50;;;13.10;92.50;;;;;;4962317;28;20076;-86
2021/09/29 00:42:49;;;;;;;12.60;4.63;;;13.00;92.70;;;;;;4957935;28;20118;-86
2021/09/29 00:45:26;;;;;;;14.65;4.60;;;13.00;92.70;;;;;;4942618;28;20098;-86
2021/09/29 00:47:55;;;;;;;14.10;5.15;;;13.10;92.50;;;;;;4968529;28;20041;-86
2021/09/29 00:50:20;;;;;;;11.80;5.25;;;13.00;92.50;;;;;;4976042;28;20043;-84
2021/09/29 00:52:48;;;;;;;13.18;4.68;;;13.00;92.30;;;;;;4932746;29;20121;-86
2021/09/29 01:05:47;;;;;;;12.63;4.72;;;13.00;92.50;;;;;;4953898;28;20094;-86
2021/09/29 01:08:15;;;;;;;11.98;4.75;;;12.90;92.50;;;;;;4961685;28;20045;-86
2021/09/29 01:11:07;;;;;;;13.20;4.35;;;13.00;92.70;;;;;;4973159;28;20545;-86
2021/09/29 01:13:47;;;;;;;12.13;4.60;;;12.90;92.30;;;;;;4978470;28;20133;-85
2021/09/29 01:16:13;;;;;;;9.82;4.35;;;12.90;92.50;;;;;;4994612;28;20053;-85
2021/09/29 01:18:46;;;;;;;12.10;4.53;;;12.90;92.50;;;;;;4995512;28;20034;-86
2021/09/29 01:21:14;;;;;;;12.10;4.53;;;13.00;92.40;;;;;;4995578;28;20104;-86
2021/09/29 01:24:12;;;;;;;10.70;4.53;;;12.90;92.20;;;;;;4995767;28;20486;-86
2021/09/29 01:26:40;;;;;;;9.57;4.45;;;12.90;92.30;;;;;;4994918;28;20049;-86
2021/09/29 01:29:11;;;;;;;8.88;4.18;;;12.90;92.40;;;;;;4986771;28;20048;-86
2021/09/29 01:31:37;;;;;;;10.70;4.45;;;12.90;92.80;;;;;;4994037;28;20498;-86
2021/09/29 01:34:05;;;;;;;8.88;4.10;;;12.90;92.50;;;;;;4993984;28;20034;-87
2021/09/29 01:36:34;;;;;;;11.23;4.45;;;12.90;92.60;;;;;;4994392;28;20509;-86
2021/09/29 01:39:01;;;;;;;8.48;3.83;;;12.90;92.50;;;;;;4993543;28;20038;-86
2021/09/29 01:41:29;;;;;;;13.48;4.70;;;12.90;92.60;;;;;;4977990;28;20046;-86
2021/09/29 01:43:57;;;;;;;10.75;4.30;;;12.90;92.60;;;;;;4994776;28;20568;-85
2021/09/29 01:46:24;;;;;;;11.82;4.60;;;12.90;92.40;;;;;;4995157;28;20045;-85
2021/09/29 01:49:18;;;;;;;8.32;3.80;;;12.90;92.40;;;;;;4995096;28;20406;-86
2021/09/29 01:51:47;;;;;;;8.40;4.07;;;12.90;92.50;;;;;;4994953;28;20245;-86
2021/09/29 01:54:16;;;;;;;10.48;4.40;;;12.90;92.50;;;;;;4995286;28;20053;-85
2021/09/29 01:56:42;;;;;;;8.40;3.97;;;12.90;92.40;;;;;;4995397;28;20104;-85
2021/09/29 01:59:08;;;;;;;8.57;3.78;;;12.90;92.50;;;;;;4999377;28;20069;-85
2021/09/29 02:01:39;;;;;;;11.98;4.30;;;12.90;92.50;;;;;;4998879;28;20498;-84
2021/09/29 02:04:06;;;;;;;12.20;4.10;;;12.90;92.30;;;;;;4998553;28;20165;-84
2021/09/29 02:06:49;;;;;;;8.05;3.83;;;12.90;92.40;;;;;;4998316;28;20429;-85
2021/09/29 02:09:16;;;;;;;9.07;3.83;;;12.80;92.30;;;;;;4983362;28;20046;-86
2021/09/29 02:11:42;;;;;;;7.03;3.72;;;12.80;92.60;;;;;;4981102;28;20301;-85
2021/09/29 02:14:07;;;;;;;8.18;3.85;;;12.80;92.80;;;;;;4998808;28;20052;-85
2021/09/29 02:16:34;;;;;;;8.60;3.88;;;12.80;92.80;;;;;;4998773;28;20125;-85
2021/09/29 02:19:00;;;;;;;9.32;4.10;;;12.80;92.70;;;;;;4998065;28;20042;-85
2021/09/29 02:21:25;;;;;;;13.45;4.03;;;12.80;92.80;;;;;;4999003;28;20092;-85
2021/09/29 02:23:51;;;;;;;7.50;3.97;;;12.80;92.60;;;;;;4998124;28;20041;-85
2021/09/29 02:26:17;;;;;;;8.48;3.92;;;12.80;92.50;;;;;;4998279;28;20046;-86
2021/09/29 02:28:42;;;;;;;10.70;4.13;;;12.80;92.40;;;;;;4997256;28;20042;-86
2021/09/29 02:31:08;;;;;;;10.73;4.03;;;12.80;92.30;;;;;;4998636;28;20052;-86
2021/09/29 02:33:33;;;;;;;10.85;3.60;;;12.80;92.30;;;;;;4996759;28;20038;-86
2021/09/29 02:35:59;;;;;;;8.43;3.60;;;12.80;92.20;;;;;;4989863;28;20046;-85
2021/09/29 02:38:25;;;;;;;10.40;3.83;;;12.80;92.40;;;;;;4984794;28;20129;-86
2021/09/29 02:40:50;;;;;;;10.73;4.18;;;12.70;92.40;;;;;;4993648;28;20064;-85
2021/09/29 02:43:16;;;;;;;11.90;3.80;;;12.70;92.40;;;;;;4998112;28;20490;-85
2021/09/29 02:45:43;;;;;;;11.63;4.50;;;12.70;92.40;;;;;;5012437;28;20447;-86
2021/09/29 02:48:11;;;;;;;9.65;3.63;;;12.70;92.40;;;;;;4997183;28;20080;-86
2021/09/29 02:50:37;;;;;;;12.55;4.07;;;12.70;92.50;;;;;;4989648;28;20061;-85
2021/09/29 02:53:02;;;;;;;12.50;4.25;;;12.60;92.60;;;;;;4998052;28;20050;-85
2021/09/29 02:55:28;;;;;;;12.93;4.03;;;12.60;92.50;;;;;;5014284;28;20053;-85
2021/09/29 02:57:53;;;;;;;11.95;3.70;;;12.60;92.50;;;;;;4997933;28;20371;-85
2021/09/29 03:00:19;;;;;;;8.85;3.30;;;12.60;92.40;;;;;;4997877;28;20089;-85
2021/09/29 03:02:44;;;;;;;14.13;4.38;;;12.60;92.40;;;;;;4996993;28;20049;-86
2021/09/29 03:05:10;;;;;;;10.82;3.50;;;12.60;92.40;;;;;;4997423;28;20049;-85
2021/09/29 03:07:36;;;;;;;8.75;3.58;;;12.50;92.60;;;;;;4996805;28;20461;-85
2021/09/29 03:10:02;;;;;;;12.30;4.05;;;12.50;92.60;;;;;;4998240;28;20042;-85
2021/09/29 03:12:28;;;;;;;10.15;3.88;;;12.50;92.60;;;;;;4997521;28;20133;-85
2021/09/29 03:14:53;;;;;;;11.00;4.13;;;12.50;92.70;;;;;;4997187;28;20124;-85
2021/09/29 03:17:19;;;;;;;9.65;4.18;;;12.50;92.60;;;;;;4992528;28;20049;-84
2021/09/29 03:19:44;;;;;;;12.13;4.00;;;12.50;92.70;;;;;;4997483;28;20041;-84
2021/09/29 03:22:10;;;;;;;8.60;3.80;;;12.50;92.70;;;;;;4997485;28;20140;-84
2021/09/29 03:24:35;;;;;;;8.75;3.30;;;12.50;92.70;;;;;;4996306;28;20133;-84
2021/09/29 03:27:05;;;;;;;9.73;3.80;;;12.50;92.70;;;;;;4997509;28;20153;-84
2021/09/29 03:29:31;;;;;;;9.90;4.35;;;12.50;92.90;;;;;;4996732;28;20129;-83
2021/09/29 03:31:57;;;;;;;9.00;3.55;;;12.50;92.80;;;;;;4998124;28;20465;-84
2021/09/29 03:34:23;;;;;;;12.50;3.95;;;12.50;92.80;;;;;;4996649;28;20406;-84
2021/09/29 03:36:49;;;;;;;8.60;3.78;;;12.50;92.90;;;;;;4997101;28;20054;-84
2021/09/29 03:39:14;;;;;;;8.30;3.70;;;12.50;93.00;;;;;;4997268;28;20046;-84
2021/09/29 03:41:40;;;;;;;12.48;4.38;;;12.50;92.90;;;;;;4996534;28;20053;-85
2021/09/29 03:44:05;;;;;;;9.77;3.90;;;12.50;92.90;;;;;;4996787;28;20508;-84
2021/09/29 03:46:31;;;;;;;11.80;3.85;;;12.50;92.90;;;;;;4997208;28;20042;-84
2021/09/29 03:48:57;;;;;;;14.68;4.70;;;12.50;92.90;;;;;;4996510;28;20041;-84
2021/09/29 03:51:23;;;;;;;9.48;4.05;;;12.50;92.90;;;;;;4996505;28;20053;-84
2021/09/29 03:53:48;;;;;;;12.77;4.50;;;12.50;93.00;;;;;;4996893;28;20053;-83
2021/09/29 03:56:14;;;;;;;13.68;4.68;;;12.50;93.10;;;;;;4996153;28;20038;-84
2021/09/29 03:58:39;;;;;;;12.73;4.82;;;12.50;93.00;;;;;;5012848;28;20045;-84
2021/09/29 04:01:05;;;;;;;12.73;4.32;;;12.40;93.00;;;;;;4995715;28;20060;-84
2021/09/29 04:03:31;;;;;;;14.07;5.18;;;12.40;92.90;;;;;;5003201;28;20414;-85
2021/09/29 04:05:56;;;;;;;8.20;3.95;;;12.40;93.00;;;;;;4993064;28;20046;-85
2021/09/29 04:08:22;;;;;;;10.45;4.47;;;12.40;93.10;;;;;;4996931;28;20049;-85
2021/09/29 04:10:48;;;;;;;13.50;5.00;;;12.40;93.00;;;;;;4993239;28;20050;-85
2021/09/29 04:13:13;;;;;;;14.63;5.40;;;12.30;93.00;;;;;;4996373;28;20092;-85
2021/09/29 04:15:39;;;;;;;13.40;5.03;;;12.40;93.00;;;;;;4994953;28;20074;-85
2021/09/29 04:18:05;;;;;;;11.68;5.18;;;12.40;93.10;;;;;;5008305;28;20447;-84
2021/09/29 04:20:31;;;;;;;13.25;4.78;;;12.40;93.00;;;;;;4994888;28;20045;-85
2021/09/29 04:22:56;;;;;;;11.48;4.50;;;12.30;93.00;;;;;;4992292;28;20038;-84
2021/09/29 04:25:22;;;;;;;12.48;5.50;;;12.30;93.00;;;;;;4995887;28;20049;-85
2021/09/29 04:27:51;;;;;;;13.30;5.45;;;12.30;93.00;;;;;;4995914;28;20049;-84
2021/09/29 04:30:16;;;;;;;12.25;4.82;;;12.30;93.10;;;;;;4996742;28;20402;-83
2021/09/29 04:32:55;;;;;;;12.95;5.15;;;12.30;93.20;;;;;;4993474;28;20049;-89
2021/09/29 04:43:44;;;;;;;16.05;5.22;;;12.20;93.20;;;;;;4919974;29;20055;-89
2021/09/29 04:46:10;;;;;;;12.05;5.28;;;12.20;93.20;;;;;;4844026;29;20506;-89
2021/09/29 04:48:35;;;;;;;12.73;5.25;;;12.20;93.50;;;;;;4899142;29;20059;-85
2021/09/29 04:51:01;;;;;;;10.50;4.90;;;12.20;93.20;;;;;;4900747;29;20413;-86
2021/09/29 04:53:27;;;;;;;12.13;5.30;;;12.10;93.30;;;;;;4899878;29;20093;-86
2021/09/29 04:55:52;;;;;;;12.70;5.40;;;12.10;93.30;;;;;;4900461;29;20063;-82
2021/09/29 04:58:18;;;;;;;11.25;5.30;;;12.10;93.40;;;;;;4919712;29;20047;-82
2021/09/29 05:00:44;;;;;;;11.68;4.97;;;12.10;93.40;;;;;;4910662;29;20860;-81
2021/09/29 05:03:10;;;;;;;14.40;5.40;;;12.10;93.40;;;;;;4915464;29;20433;-81
2021/09/29 05:05:36;;;;;;;14.65;6.10;;;12.10;93.50;;;;;;4901150;29;20544;-81
2021/09/29 05:08:05;;;;;;;12.20;5.35;;;12.10;93.50;;;;;;4899826;29;20055;-80
2021/09/29 05:10:40;;;;;;;13.32;5.53;;;12.10;93.60;;;;;;4899970;29;20103;-81
2021/09/29 05:13:11;;;;;;;12.50;5.75;;;12.00;93.50;;;;;;4900424;29;20481;-81
2021/09/29 05:15:36;;;;;;;9.13;4.93;;;12.00;93.60;;;;;;4900067;29;20066;-80
2021/09/29 05:18:02;;;;;;;12.32;5.60;;;12.00;93.60;;;;;;4899919;29;20138;-80
2021/09/29 05:20:28;;;;;;;10.73;5.53;;;12.00;93.70;;;;;;4899619;29;20078;-81
2021/09/29 05:22:53;;;;;;;13.93;5.40;;;12.00;93.70;;;;;;4900017;29;20054;-80
2021/09/29 05:25:19;;;;;;;18.38;5.65;;;12.00;93.60;;;;;;4900546;29;20055;-81
2021/09/29 05:27:46;;;;;;;14.32;5.45;;;12.00;93.60;;;;;;4898931;29;20056;-80
2021/09/29 05:30:12;;;;;;;13.15;5.55;;;12.00;93.60;;;;;;4899430;29;20548;-80
2021/09/29 05:32:37;;;;;;;10.95;4.85;;;12.00;93.60;;;;;;4903568;29;20040;-81
2021/09/29 05:35:03;;;;;;;10.68;5.00;;;12.00;93.60;;;;;;4903588;29;20079;-80
2021/09/29 05:37:29;;;;;;;11.70;4.90;;;12.00;93.50;;;;;;4903735;29;20135;-80
2021/09/29 05:39:54;;;;;;;8.15;4.53;;;12.00;93.60;;;;;;4904128;29;20492;-81
2021/09/29 05:42:20;;;;;;;12.23;5.28;;;12.00;93.50;;;;;;4900046;29;20052;-81
2021/09/29 05:44:46;;;;;;;9.13;4.82;;;12.00;93.40;;;;;;4903749;29;20056;-81
2021/09/29 05:47:11;;;;;;;13.05;5.15;;;12.00;93.40;;;;;;4904106;29;20044;-81
2021/09/29 05:49:37;;;;;;;8.95;4.90;;;12.00;93.40;;;;;;4902780;29;20099;-81
2021/09/29 05:52:03;;;;;;;14.82;5.10;;;12.00;93.50;;;;;;4904051;29;20083;-81
2021/09/29 05:54:29;;;;;;;11.70;5.22;;;12.00;93.50;;;;;;4903209;29;20048;-81
2021/09/29 05:56:54;;;;;;;11.63;5.32;;;12.00;93.50;;;;;;4903147;29;20600;-81
2021/09/29 05:59:20;;;;;;;12.73;6.03;;;12.00;93.40;;;;;;4903871;29;20131;-81
2021/09/29 06:01:46;;;;;;;12.40;5.10;;;12.00;93.40;;;;;;4902841;29;20563;-81
2021/09/29 06:04:12;;;;;;;10.73;5.20;;;12.00;93.50;;;;;;4902900;29;20088;-82
2021/09/29 06:06:38;;;;;;;11.25;5.40;;;12.00;93.50;;;;;;4903271;29;20400;-80
2021/09/29 06:09:03;;;;;;;9.38;5.25;;;12.00;93.90;;;;;;4903119;29;20541;-80
2021/09/29 06:11:29;;;;;;;12.02;5.70;;;12.00;93.60;;;;;;4902439;29;20048;-81
2021/09/29 06:14:00;;;;;;;15.85;5.85;;;12.00;93.70;;;;;;4903765;29;20142;-81
2021/09/29 06:16:26;;;;;;;11.43;4.70;;;12.00;93.70;;;;;;4902946;29;20404;-81
2021/09/29 06:18:51;;;;;;;10.07;5.18;;;12.00;93.80;;;;;;4903305;29;20134;-81
2021/09/29 06:21:18;;;;;;;12.38;5.75;;;12.00;93.80;;;;;;4903176;29;20055;-81
2021/09/29 06:23:43;;;;;;;13.15;5.35;;;12.00;93.80;;;;;;4902403;29;20143;-81
2021/09/29 06:26:09;;;;;;;9.93;4.85;;;12.00;93.80;;;;;;4903330;29;20086;-81
2021/09/29 06:28:37;;;;;;;12.20;5.43;;;12.00;93.90;;;;;;4902937;29;20063;-81
2021/09/29 06:31:07;;;;;;;12.45;5.85;;;12.00;93.90;;;;;;4902734;29;20106;-81
2021/09/29 06:33:32;;;;;;;11.50;5.15;;;12.00;94.00;;;;;;4902038;29;20082;-81
2021/09/29 06:35:59;;;;;;;11.43;5.43;;;12.00;94.10;;;;;;4901833;29;20072;-81
2021/09/29 06:38:25;;;;;;;10.23;5.00;;;12.00;94.00;;;;;;4901622;29;20060;-81
2021/09/29 06:40:50;;;;;;;15.07;6.22;;;12.00;94.00;;;;;;4901915;29;20044;-81
2021/09/29 06:43:17;;;;;;;11.98;6.03;;;12.10;94.00;;;;;;4901991;29;20111;-82
2021/09/29 06:45:42;;;;;;;10.20;5.45;;;12.10;94.10;;;;;;4901843;29;20063;-82
2021/09/29 06:48:10;;;;;;;11.68;5.30;;;12.10;94.10;;;;;;4902821;29;20055;-81
2021/09/29 06:50:36;;;;;;;12.13;5.30;;;12.10;94.10;;;;;;4918912;29;20127;-82
2021/09/29 06:53:02;;;;;;;10.65;5.22;;;12.20;94.20;;;;;;4901846;29;20396;-81
2021/09/29 06:55:28;;;;;;;9.85;4.68;;;12.20;94.20;;;;;;4902291;29;20161;-81
2021/09/29 06:57:53;;;;;;;11.43;5.05;;;12.20;94.20;;;;;;4901661;29;20055;-81
2021/09/29 07:00:19;;;;;;;13.45;5.40;;;12.20;94.10;;;;;;4901715;29;20052;-81
2021/09/29 07:02:46;;;;;;;13.27;5.13;;;12.20;94.10;;;;;;4901910;29;20055;-82
2021/09/29 07:05:13;;;;;;;12.18;4.95;;;12.20;94.10;;;;;;4902510;29;20051;-81
2021/09/29 07:07:39;;;;;;;12.05;4.78;;;12.20;94.10;;;;;;4901715;29;20070;-81
2021/09/29 07:10:07;;;;;;;13.18;4.85;;;12.30;94.00;;;;;;4901909;29;20048;-81
2021/09/29 07:12:34;;;;;;;15.35;5.55;;;12.30;94.00;;;;;;4902386;29;20044;-80
2021/09/29 07:15:00;;;;;;;13.75;5.30;;;12.30;94.10;;;;;;4901856;29;20485;-80
2021/09/29 07:17:27;;;;;;;9.32;4.65;;;12.30;94.20;;;;;;4901785;29;20046;-80
2021/09/29 07:19:57;;;;;;;12.43;4.70;;;12.40;94.20;;;;;;4900977;29;20055;-81
2021/09/29 07:22:26;;;;;;;15.45;5.43;;;12.40;94.20;;;;;;4883381;29;20048;-81
2021/09/29 07:24:51;;;;;;;11.88;5.13;;;12.40;94.40;;;;;;4899365;29;20553;-80
2021/09/29 07:27:17;;;;;;;11.32;5.13;;;12.40;94.50;;;;;;4918446;29;20134;-80
2021/09/29 07:29:43;;;;;;;12.20;5.28;;;12.40;94.50;;;;;;4901470;29;20047;-80
2021/09/29 07:32:08;;;;;;;12.48;4.72;;;12.40;94.50;;;;;;4902050;29;20048;-79
2021/09/29 07:34:34;;;;;;;14.43;5.22;;;12.40;94.40;;;;;;4918239;29;20051;-79
2021/09/29 07:36:59;;;;;;;9.32;4.82;;;12.40;94.40;;;;;;4918710;29;20056;-80
2021/09/29 07:39:25;;;;;;;13.45;5.20;;;12.40;94.40;;;;;;4902073;29;20051;-80
2021/09/29 07:41:50;;;;;;;9.75;4.63;;;12.40;94.60;;;;;;4901050;29;20485;-80
2021/09/29 07:44:16;;;;;;;12.70;4.85;;;12.50;94.70;;;;;;4901554;29;20404;-81
2021/09/29 07:46:43;;;;;;;8.65;4.55;;;12.50;94.80;;;;;;4901587;29;20123;-81
2021/09/29 07:49:11;;;;;;;9.15;4.63;;;12.50;94.70;;;;;;4901028;29;20052;-81
2021/09/29 07:51:37;;;;;;;11.20;4.85;;;12.50;94.70;;;;;;4901711;29;20044;-81
2021/09/29 07:54:03;;;;;;;15.55;5.15;;;12.50;94.80;;;;;;4900648;29;20052;-81
2021/09/29 07:56:28;;;;;;;13.18;5.00;;;12.60;94.90;;;;;;4917212;29;20390;-81
2021/09/29 07:58:54;;;;;;;12.32;5.78;;;12.60;94.90;;;;;;4901545;29;20043;-81
2021/09/29 08:01:19;;;;;;;11.48;4.88;;;12.60;95.20;;;;;;4901572;29;20100;-81
2021/09/29 08:03:45;;;;;;;12.50;4.85;;;12.60;95.10;;;;;;4900594;29;20437;-81
2021/09/29 08:06:12;;;;;;;11.90;4.15;;;12.60;95.10;;;;;;4901784;29;20132;-81
2021/09/29 08:08:37;;;;;;;10.57;5.00;;;12.60;95.10;;;;;;4901159;29;20111;-81
2021/09/29 08:11:03;;;;;;;12.68;5.00;;;12.60;95.20;;;;;;4900748;29;20051;-81
2021/09/29 08:13:36;;;;;;;11.10;4.38;;;12.70;95.20;;;;;;4900962;29;20123;-81
2021/09/29 08:16:03;;;;;;;13.48;4.88;;;12.70;95.10;;;;;;4900658;29;20123;-81
2021/09/29 08:18:29;;;;;;;11.15;4.45;;;12.70;95.00;;;;;;4900889;29;20112;-81
2021/09/29 08:20:57;;;;;;;12.45;4.68;;;12.70;95.20;;;;;;4901318;29;20130;-81
2021/09/29 08:23:30;;;;;;;10.23;4.22;;;12.70;95.20;;;;;;4900944;29;20060;-81
2021/09/29 08:26:28;;;;;;;8.82;3.75;;;12.80;95.10;;;;;;4900902;29;20079;-81
2021/09/29 08:31:44;;;;;;;9.52;4.30;;;12.80;95.10;;;;;;4899472;29;20076;-84
2021/09/29 08:34:16;;;;;;;10.98;4.38;;;12.80;94.90;;;;;;4900924;29;20052;-83
2021/09/29 08:44:37;;;;;;;8.93;4.15;;;12.90;95.30;;;;;;4915810;29;20108;-84
2021/09/29 08:47:12;;;;;;;10.30;4.28;;;12.90;95.30;;;;;;4915449;29;20055;-83
2021/09/29 08:58:00;;;;;;;10.48;5.18;;;13.00;95.50;;;;;;4900193;29;20070;-83
2021/09/29 09:17:00;;;;;;;10.88;4.80;;;13.00;95.50;;;;;;4900520;29;20131;-83
2021/09/29 09:19:29;;;;;;;8.77;4.05;;;13.00;95.60;;;;;;4899520;29;20048;-83
2021/09/29 09:22:05;;;;;;;9.48;4.80;;;13.10;95.50;;;;;;4900313;29;20056;-83
2021/09/29 09:24:34;;;;;;;11.02;4.63;;;13.10;95.40;;;;;;4899451;29;20052;-83
2021/09/29 09:27:02;;;;;;;11.32;4.15;;;13.10;95.50;;;;;;4899571;29;20058;-82
2021/09/29 09:29:29;;;;;;;9.88;4.65;;;13.10;95.40;;;;;;4900507;29;20048;-82
2021/09/29 09:32:10;;;;;;;8.93;4.60;;;13.10;95.50;;;;;;4900187;29;20062;-82
2021/09/29 09:34:37;;;;;;;7.13;3.88;;;13.10;95.60;;;;;;4898995;29;20076;-82
2021/09/29 09:37:06;;;;;;;8.90;3.80;;;13.10;95.50;;;;;;4899714;29;20066;-82
2021/09/29 09:39:32;;;;;;;9.02;4.05;;;13.10;95.40;;;;;;4899630;29;20054;-81
2021/09/29 09:42:00;;;;;;;8.07;4.45;;;13.10;95.40;;;;;;4899576;29;20136;-81
2021/09/29 09:44:36;;;;;;;7.25;3.95;;;13.10;95.60;;;;;;4918091;29;20054;-80
2021/09/29 09:47:09;;;;;;;7.43;3.95;;;13.10;95.60;;;;;;4918695;29;20102;-81
2021/09/29 09:49:44;;;;;;;;;;;13.10;95.70;;;;;;4919986;29;20076;-79
2021/09/29 09:52:10;;;;;;;6.60;3.38;;;13.10;95.70;;;;;;4916671;29;19919;-79
2021/09/29 09:54:38;;;;;;;8.68;3.80;;;13.10;95.50;;;;;;4916374;29;20119;-80
2021/09/29 09:57:16;;;;;;;6.47;3.40;;;13.10;95.60;;;;;;4899678;29;20480;-80
2021/09/29 09:59:46;;;;;;;6.28;3.33;;;13.20;95.60;;;;;;4899830;29;20037;-80
2021/09/29 10:02:12;;;;;;;4.88;3.20;;;13.20;95.80;;;;;;4899356;29;20059;-80
2021/09/29 10:04:37;;;;;;;5.63;3.03;;;13.20;95.90;;;;;;4900329;29;20052;-80
2021/09/29 10:07:06;;;;;;;6.30;3.00;;;13.20;95.80;;;;;;4899506;29;20048;-80
2021/09/29 10:10:18;;;;;;;5.25;3.00;;;13.20;95.60;;;;;;4899200;29;20055;-79
2021/09/29 10:15:25;;;;;;;5.38;2.75;;;13.30;95.90;;;;;;4899385;29;20059;-79
2021/09/29 10:23:30;;;;;;;5.30;2.78;;;13.20;95.90;;;;;;4919215;29;20063;-79
2021/09/29 10:26:11;;;;;;;6.18;3.00;;;13.30;95.80;;;;;;4919867;29;20045;-79
2021/09/29 10:28:42;;;;;;;6.38;3.03;;;13.30;95.80;;;;;;4902997;29;20048;-78
2021/09/29 10:33:40;;;;;;;6.70;3.35;;;13.30;96.00;;;;;;4902356;29;20052;-80
2021/09/29 10:41:10;;;;;;;6.30;3.30;;;13.30;96.00;;;;;;4913511;29;20044;-79
2021/09/29 10:43:58;;;;;;;5.13;2.90;;;13.30;96.00;;;;;;4902740;29;20063;-80
2021/09/29 11:06:03;;;;;;;6.30;2.70;;;13.30;96.00;;;;;;4901546;29;20058;-80
2021/09/29 11:33:38;;;;;;;6.63;2.78;;;13.30;96.20;;;;;;4915999;29;20063;-78
2021/09/29 11:36:13;;;;;;;7.07;2.65;;;13.30;96.30;;;;;;4918013;29;20560;-79
2021/09/29 12:11:30;;;;;;;1.80;0.73;;;13.20;96.10;;;;;;4900863;29;20143;-81
2021/09/29 12:14:01;;;;;;;0.80;0.40;;;13.10;95.80;;;;;;4901168;29;20071;-80
2021/09/29 12:16:37;;;;;;;3.10;0.52;;;13.00;95.50;;;;;;4917153;29;20052;-81
2021/09/29 12:19:07;;;;;;;1.55;0.60;;;13.00;95.20;;;;;;4901169;29;20117;-81
2021/09/29 12:21:50;;;;;;;1.10;0.30;;;12.90;95.30;;;;;;4900421;29;20052;-80
2021/09/29 12:24:33;;;;;;;1.80;0.50;;;12.90;95.20;;;;;;4899808;29;20052;-80
2021/09/29 12:27:01;;;;;;;3.05;0.50;;;12.80;95.10;;;;;;4901427;29;20122;-80
2021/09/29 12:37:36;;;;;;;2.20;0.43;;;12.70;95.20;;;;;;4900558;29;20084;-82
2021/09/29 12:40:02;;;;;;;5.30;0.80;;;12.70;95.40;;;;;;4900771;29;20083;-81
2021/09/29 12:42:33;;;;;;;2.80;0.60;;;12.80;95.40;;;;;;4909742;29;20052;-82
2021/09/29 12:44:59;;;;;;;2.05;0.57;;;12.80;95.50;;;;;;4898890;29;20055;-82
2021/09/29 12:50:00;;;;;;;3.03;0.50;;;12.80;95.50;;;;;;4899924;29;20052;-82
2021/09/29 12:52:30;;;;;;;2.38;0.35;;;12.70;95.50;;;;;;4898985;29;20067;-82
2021/09/29 12:54:57;;;;;;;2.47;0.50;;;12.80;95.50;;;;;;4898140;29;20099;-82
2021/09/29 12:57:27;;;;;;;1.90;0.60;;;12.80;95.60;;;;;;4898668;29;20044;-82
2021/09/29 12:59:52;;;;;;;1.90;0.50;;;12.80;95.60;;;;;;4897039;29;20040;-82
2021/09/29 13:02:18;;;;;;;2.90;0.57;;;12.80;95.60;;;;;;4899186;29;20051;-81
2021/09/29 13:04:43;;;;;;;3.45;0.60;;;12.80;95.60;;;;;;4898883;29;20148;-82
2021/09/29 13:07:09;;;;;;;2.95;0.65;;;12.80;95.60;;;;;;4899792;29;20566;-82
2021/09/29 13:09:34;;;;;;;2.42;0.65;;;12.80;95.60;;;;;;4900640;29;20616;-81
2021/09/29 13:12:00;;;;;;;3.42;0.65;;;12.80;95.70;;;;;;4900663;29;20040;-82
2021/09/29 13:14:26;;;;;;;3.08;0.57;;;12.80;95.70;;;;;;4900286;29;20511;-82
2021/09/29 13:16:51;;;;;;;4.63;0.60;;;12.80;96.00;;;;;;4899636;29;20044;-82
2021/09/29 13:19:24;;;;;;;2.95;0.52;;;12.80;95.70;;;;;;4898365;29;20044;-81
2021/09/29 13:21:56;;;;;;;3.35;0.60;;;12.80;95.80;;;;;;4899726;29;20056;-81
2021/09/29 13:24:52;;;;;;;3.03;0.70;;;12.80;95.80;;;;;;4900355;29;20044;-82
2021/09/29 13:27:36;;;;;;;5.57;0.50;;;12.80;95.80;;;;;;4899549;29;20405;-82
2021/09/29 13:38:14;;;;;;;2.38;0.50;;;12.80;95.70;;;;;;4900002;29;20492;-83
2021/09/29 13:40:41;;;;;;;1.75;0.47;;;12.70;95.70;;;;;;4899089;29;20048;-82
2021/09/29 13:43:07;;;;;;;4.15;0.52;;;12.80;95.80;;;;;;4899753;29;20060;-83
2021/09/29 13:45:33;;;;;;;1.52;0.50;;;12.80;95.70;;;;;;4899645;29;20104;-82
2021/09/29 13:47:59;;;;;;;1.98;0.50;;;12.70;95.70;;;;;;4898962;29;20552;-83
2021/09/29 13:50:25;;;;;;;2.85;0.60;;;12.70;95.70;;;;;;4899285;29;20087;-82
2021/09/29 13:52:50;;;;;;;3.30;0.60;;;12.70;95.70;;;;;;4901210;29;20067;-83
2021/09/29 13:55:19;;;;;;;4.07;0.52;;;12.70;95.70;;;;;;4902695;29;20052;-82
2021/09/29 13:57:52;;;;;;;1.80;0.50;;;12.70;95.70;;;;;;4903285;29;20502;-82
2021/09/29 14:00:30;;;;;;;1.55;0.50;;;12.70;95.70;;;;;;4903495;29;20064;-82
2021/09/29 14:32:42;;;;;;;2.28;0.70;;;12.60;95.20;;;;;;4902875;29;20346;-81
2021/09/29 14:35:08;;;;;;;2.00;0.40;;;12.60;95.20;;;;;;4902922;29;20463;-83
2021/09/29 14:37:34;;;;;;;3.00;0.60;;;12.60;95.30;;;;;;4901859;29;20048;-83
2021/09/29 14:40:00;;;;;;;3.22;0.60;;;12.70;95.30;;;;;;4903038;29;20047;-84
2021/09/29 14:42:26;;;;;;;1.95;0.50;;;12.70;95.20;;;;;;4902372;29;20048;-82
2021/09/29 14:44:51;;;;;;;1.27;0.55;;;12.70;95.30;;;;;;4901580;29;20057;-82
2021/09/29 14:47:17;;;;;;;2.22;0.80;;;12.70;95.20;;;;;;4902218;29;20409;-82
2021/09/29 14:49:44;;;;;;;2.90;0.60;;;12.70;95.20;;;;;;4902209;29;20051;-82
2021/09/29 14:52:11;;;;;;;5.40;0.90;;;12.70;95.20;;;;;;4902193;29;20080;-80
2021/09/29 14:54:37;;;;;;;2.55;0.90;;;12.70;95.20;;;;;;4902093;29;20044;-81
2021/09/29 14:57:09;;;;;;;2.58;0.50;;;12.70;95.30;;;;;;4901686;29;20051;-80
2021/09/29 14:59:36;;;;;;;3.28;0.57;;;12.70;95.20;;;;;;4890583;29;20085;-81
2021/09/29 15:02:02;;;;;;;1.80;0.70;;;12.70;95.20;;;;;;4902879;29;20067;-82
2021/09/29 15:04:28;;;;;;;1.30;0.70;;;12.70;95.30;;;;;;4900669;29;20060;-82
2021/09/29 15:06:53;;;;;;;2.85;0.60;;;12.60;95.30;;;;;;4902184;29;20048;-83
2021/09/29 15:09:19;;;;;;;2.65;0.52;;;12.60;95.20;;;;;;4901897;29;20386;-82
2021/09/29 15:11:44;;;;;;;1.55;0.40;;;12.60;95.10;;;;;;4901205;29;20104;-82
2021/09/29 15:14:13;;;;;;;3.15;0.60;;;12.60;95.10;;;;;;4902553;29;20076;-83
2021/09/29 15:16:46;;;;;;;1.45;0.50;;;12.50;95.00;;;;;;4902233;29;20139;-83
2021/09/29 15:20:05;;;;;;;2.00;0.50;;;12.50;95.10;;;;;;4901514;29;20083;-83
2021/09/29 15:32:19;;;;;;;5.72;0.70;;;12.40;95.10;;;;;;4901943;29;20400;-87
2021/09/29 15:48:33;;;;;;;4.63;1.02;;;12.30;95.40;;;;;;4916897;29;20103;-80
2021/09/29 15:56:23;;;;;;;5.68;0.90;;;12.20;95.50;;;;;;4905117;29;20071;-82
2021/09/29 16:01:35;;;;;;;5.13;0.93;;;12.10;95.50;;;;;;4900634;29;20892;-81
2021/09/29 16:06:40;;;;;;;5.82;0.80;;;12.10;95.60;;;;;;4902405;29;20048;-81
2021/09/29 16:12:20;;;;;;;5.40;0.70;;;12.10;95.50;;;;;;4912081;29;20083;-82
2021/09/29 16:17:42;;;;;;;3.50;0.80;;;12.00;95.60;;;;;;4928832;29;20095;-80
2021/09/29 16:31:02;;;;;;;4.82;1.00;;;12.10;95.60;;;;;;4918929;29;20048;-81
2021/09/29 16:33:44;;;;;;;2.90;0.80;;;12.20;95.60;;;;;;4930748;29;20127;-81
2021/09/29 16:36:15;;;;;;;5.43;1.10;;;12.20;95.60;;;;;;4918560;29;20048;-81
2021/09/29 16:38:44;;;;;;;5.50;1.02;;;12.20;95.50;;;;;;4919699;29;20393;-82
2021/09/29 16:41:10;;;;;;;3.60;1.00;;;12.20;95.50;;;;;;4903702;29;20048;-82
2021/09/29 16:43:35;;;;;;;4.45;0.90;;;12.20;95.50;;;;;;4906825;29;20063;-81
2021/09/29 16:46:01;;;;;;;6.25;1.10;;;12.20;95.50;;;;;;4901251;29;20424;-80
2021/09/29 16:48:29;;;;;;;4.40;0.77;;;12.20;95.40;;;;;;4899550;29;20473;-80
2021/09/29 16:53:24;;;;;;;6.45;1.08;;;12.20;95.40;;;;;;4916992;29;20492;-80
2021/09/29 16:55:50;;;;;;;3.88;0.90;;;12.20;95.30;;;;;;4910244;29;20554;-80
2021/09/29 16:58:23;;;;;;;4.82;0.90;;;12.20;95.30;;;;;;4918822;29;20058;-81
2021/09/29 17:00:54;;;;;;;2.13;0.63;;;12.20;95.30;;;;;;4919581;29;20152;-81
2021/09/29 17:03:20;;;;;;;5.80;1.10;;;12.10;95.40;;;;;;4922467;29;20048;-81
2021/09/29 17:05:45;;;;;;;5.63;0.80;;;12.10;95.30;;;;;;4905776;29;20055;-81
2021/09/29 17:08:11;;;;;;;6.85;1.00;;;12.20;95.30;;;;;;4907225;29;20036;-81
2021/09/29 17:10:38;;;;;;;6.40;0.90;;;12.10;95.30;;;;;;4901142;29;20123;-80